createdAt,value
2022-08-14T00:00:40.615Z,1009.94
2022-08-14T00:01:40.608Z,1009.94
2022-08-14T00:02:40.579Z,1009.96
2022-08-14T00:03:41.906Z,1009.94
2022-08-14T00:04:44.578Z,1009.94
2022-08-14T00:05:40.529Z,1009.95
2022-08-14T00:06:40.498Z,1009.93
2022-08-14T00:07:42.041Z,1009.93
2022-08-14T00:08:45.162Z,1009.93
2022-08-14T00:10:01.988Z,1009.92
2022-08-14T00:10:52.178Z,1009.90
2022-08-14T00:11:43.544Z,1009.92
2022-08-14T00:12:41.121Z,1009.89
2022-08-14T00:13:40.409Z,1009.88
2022-08-14T00:14:40.443Z,1009.85
2022-08-14T00:15:44.174Z,1009.89
2022-08-14T00:16:44.776Z,1009.87
2022-08-14T00:17:47.900Z,1009.88
2022-08-14T00:19:18.514Z,1009.87
2022-08-14T00:19:42.267Z,1009.84
2022-08-14T00:20:42.930Z,1009.85
2022-08-14T00:21:42.243Z,1009.83
2022-08-14T00:22:56.777Z,1009.84
2022-08-14T00:23:41.314Z,1009.83
2022-08-14T00:24:40.993Z,1009.82
2022-08-14T00:25:42.425Z,1009.79
2022-08-14T00:26:41.002Z,1009.79
2022-08-14T00:27:40.947Z,1009.77
2022-08-14T00:28:40.341Z,1009.78
2022-08-14T00:29:42.874Z,1009.77
2022-08-14T00:30:42.835Z,1009.73
2022-08-14T00:31:45.745Z,1009.79
2022-08-14T00:32:52.129Z,1009.77
2022-08-14T00:33:51.469Z,1009.75
2022-08-14T00:34:46.747Z,1009.73
2022-08-14T00:36:33.818Z,1009.72
2022-08-14T00:36:49.225Z,1009.70
2022-08-14T00:37:44.314Z,1009.72
2022-08-14T00:38:41.468Z,1009.68
2022-08-14T00:39:40.769Z,1009.70
2022-08-14T00:40:41.060Z,1009.73
2022-08-14T00:41:42.298Z,1009.73
2022-08-14T00:42:54.894Z,1009.74
2022-08-14T00:43:45.700Z,1009.72
2022-08-14T00:44:40.387Z,1009.73
2022-08-14T00:45:40.827Z,1009.70
2022-08-14T00:46:41.032Z,1009.71
2022-08-14T00:47:43.113Z,1009.71
2022-08-14T00:48:42.563Z,1009.69
2022-08-14T00:49:43.016Z,1009.67
2022-08-14T00:50:43.452Z,1009.67
2022-08-14T00:51:41.235Z,1009.64
2022-08-14T00:52:40.912Z,1009.63
2022-08-14T00:53:40.115Z,1009.60
2022-08-14T00:54:43.531Z,1009.62
2022-08-14T00:55:43.487Z,1009.59
2022-08-14T00:56:40.404Z,1009.59
2022-08-14T00:57:41.069Z,1009.53
2022-08-14T00:58:45.487Z,1009.53
2022-08-14T00:59:43.559Z,1009.53
2022-08-14T01:00:47.438Z,1009.52
2022-08-14T01:01:41.379Z,1009.48
2022-08-14T01:02:41.036Z,1009.46
2022-08-14T01:03:42.425Z,1009.47
2022-08-14T01:04:53.961Z,1009.46
2022-08-14T01:05:41.734Z,1009.48
2022-08-14T01:06:45.301Z,1009.46
2022-08-14T01:07:54.135Z,1009.50
2022-08-14T01:08:51.886Z,1009.46
2022-08-14T01:09:42.318Z,1009.45
2022-08-14T01:10:40.273Z,1009.43
2022-08-14T01:11:40.551Z,1009.46
2022-08-14T01:12:41.875Z,1009.46
2022-08-14T01:13:42.828Z,1009.44
2022-08-14T01:14:40.824Z,1009.48
2022-08-14T01:15:57.589Z,1009.41
2022-08-14T01:16:40.793Z,1009.41
2022-08-14T01:17:45.763Z,1009.40
2022-08-14T01:18:40.742Z,1009.39
2022-08-14T01:19:41.279Z,1009.39
2022-08-14T01:20:40.861Z,1009.40
2022-08-14T01:21:46.785Z,1009.37
2022-08-14T01:22:40.732Z,1009.37
2022-08-14T01:23:46.608Z,1009.37
2022-08-14T01:24:40.762Z,1009.30
2022-08-14T01:25:39.658Z,1009.28
2022-08-14T01:26:39.750Z,1009.31
2022-08-14T01:27:53.835Z,1009.28
2022-08-14T01:28:56.264Z,1009.28
2022-08-14T01:29:58.462Z,1009.29
2022-08-14T01:30:40.655Z,1009.27
2022-08-14T01:31:39.631Z,1009.25
2022-08-14T01:32:42.464Z,1009.24
2022-08-14T01:35:15.811Z,1009.21
2022-08-14T01:35:18.511Z,1009.20
2022-08-14T01:36:03.644Z,1009.18
2022-08-14T01:36:40.677Z,1009.15
2022-08-14T01:37:44.217Z,1009.18
2022-08-14T01:38:39.626Z,1009.16
2022-08-14T01:39:41.473Z,1009.12
2022-08-14T01:40:41.750Z,1009.07
2022-08-14T01:41:39.549Z,1009.09
2022-08-14T01:42:39.642Z,1009.04
2022-08-14T01:43:40.131Z,1009.09
2022-08-14T01:44:41.299Z,1009.04
2022-08-14T01:45:40.610Z,1009.08
2022-08-14T01:46:39.451Z,1009.05
2022-08-14T01:47:39.413Z,1009.03
2022-08-14T01:48:39.471Z,1009.02
2022-08-14T01:49:46.263Z,1009.03
2022-08-14T01:50:40.353Z,1009.03
2022-08-14T01:51:39.442Z,1009.01
2022-08-14T01:52:58.649Z,1009.01
2022-08-14T01:53:41.592Z,1009.05
2022-08-14T01:54:39.327Z,1009.03
2022-08-14T01:55:40.491Z,1009.02
2022-08-14T01:56:39.995Z,1009.01
2022-08-14T01:58:00.496Z,1008.98
2022-08-14T01:58:57.188Z,1008.94
2022-08-14T01:59:40.357Z,1008.96
2022-08-14T02:00:39.967Z,1008.94
2022-08-14T02:01:41.810Z,1008.93
2022-08-14T02:02:40.290Z,1008.87
2022-08-14T02:03:40.163Z,1008.88
2022-08-14T02:04:55.995Z,1008.83
2022-08-14T02:05:40.269Z,1008.80
2022-08-14T02:06:42.022Z,1008.81
2022-08-14T02:07:53.479Z,1008.82
2022-08-14T02:08:52.526Z,1008.81
2022-08-14T02:09:40.198Z,1008.82
2022-08-14T02:10:46.393Z,1008.78
2022-08-14T02:11:40.179Z,1008.80
2022-08-14T02:12:39.877Z,1008.80
2022-08-14T02:13:39.128Z,1008.78
2022-08-14T02:14:39.130Z,1008.74
2022-08-14T02:15:40.182Z,1008.76
2022-08-14T02:16:39.770Z,1008.75
2022-08-14T02:17:39.113Z,1008.72
2022-08-14T02:18:39.751Z,1008.72
2022-08-14T02:19:41.052Z,1008.72
2022-08-14T02:20:39.062Z,1008.67
2022-08-14T02:21:47.265Z,1008.67
2022-08-14T02:22:47.360Z,1008.69
2022-08-14T02:23:40.756Z,1008.68
2022-08-14T02:24:45.193Z,1008.66
2022-08-14T02:25:41.454Z,1008.65
2022-08-14T02:28:18.951Z,1008.64
2022-08-14T02:28:24.615Z,1008.67
2022-08-14T02:28:56.753Z,1008.65
2022-08-14T02:29:56.482Z,1008.61
2022-08-14T02:30:39.981Z,1008.59
2022-08-14T02:31:43.315Z,1008.61
2022-08-14T02:32:40.019Z,1008.57
2022-08-14T02:33:39.057Z,1008.56
2022-08-14T02:34:38.936Z,1008.54
2022-08-14T02:35:40.652Z,1008.54
2022-08-14T02:37:04.921Z,1008.55
2022-08-14T02:37:48.254Z,1008.50
2022-08-14T02:38:39.847Z,1008.50
2022-08-14T02:39:38.943Z,1008.50
2022-08-14T02:40:38.877Z,1008.49
2022-08-14T02:41:45.025Z,1008.44
2022-08-14T02:42:39.840Z,1008.50
2022-08-14T02:43:46.449Z,1008.49
2022-08-14T02:44:40.037Z,1008.45
2022-08-14T02:45:44.662Z,1008.46
2022-08-14T02:46:41.136Z,1008.46
2022-08-14T02:47:38.983Z,1008.44
2022-08-14T02:49:04.869Z,1008.40
2022-08-14T02:49:41.755Z,1008.43
2022-08-14T02:50:39.412Z,1008.40
2022-08-14T02:51:38.746Z,1008.43
2022-08-14T02:52:57.880Z,1008.41
2022-08-14T02:53:39.694Z,1008.41
2022-08-14T02:54:40.652Z,1008.39
2022-08-14T02:55:38.683Z,1008.37
2022-08-14T02:57:15.273Z,1008.36
2022-08-14T02:57:41.083Z,1008.35
2022-08-14T02:58:38.753Z,1008.35
2022-08-14T02:59:39.314Z,1008.39
2022-08-14T03:00:40.543Z,1008.34
2022-08-14T03:01:43.247Z,1008.32
2022-08-14T03:02:56.257Z,1008.33
2022-08-14T03:03:39.655Z,1008.31
2022-08-14T03:04:40.517Z,1008.35
2022-08-14T03:05:41.113Z,1008.30
2022-08-14T03:07:06.516Z,1008.27
2022-08-14T03:07:39.661Z,1008.24
2022-08-14T03:08:39.217Z,1008.25
2022-08-14T03:10:24.441Z,1008.19
2022-08-14T03:10:41.786Z,1008.17
2022-08-14T03:11:39.539Z,1008.16
2022-08-14T03:12:40.192Z,1008.15
2022-08-14T03:13:38.656Z,1008.13
2022-08-14T03:14:38.574Z,1008.14
2022-08-14T03:15:38.501Z,1008.11
2022-08-14T03:16:38.652Z,1008.10
2022-08-14T03:17:41.203Z,1008.11
2022-08-14T03:18:40.100Z,1008.13
2022-08-14T03:19:38.412Z,1008.09
2022-08-14T03:20:39.890Z,1008.05
2022-08-14T03:21:39.071Z,1008.11
2022-08-14T03:22:38.448Z,1008.06
2022-08-14T03:23:39.233Z,1008.04
2022-08-14T03:24:39.039Z,1008.00
2022-08-14T03:25:39.044Z,1008.03
2022-08-14T03:26:39.019Z,1007.97
2022-08-14T03:27:48.446Z,1007.96
2022-08-14T03:28:39.432Z,1007.96
2022-08-14T03:29:39.006Z,1007.98
2022-08-14T03:30:40.994Z,1008.00
2022-08-14T03:31:38.285Z,1007.97
2022-08-14T03:32:38.962Z,1007.98
2022-08-14T03:33:40.441Z,1007.97
2022-08-14T03:34:52.783Z,1007.96
2022-08-14T03:36:07.667Z,1007.96
2022-08-14T03:37:38.315Z,1008.00
2022-08-14T03:39:09.916Z,1007.97
2022-08-14T03:39:15.648Z,1007.93
2022-08-14T03:39:39.258Z,1007.96
2022-08-14T03:40:38.238Z,1007.93
2022-08-14T03:41:38.239Z,1007.93
2022-08-14T03:42:38.281Z,1007.95
2022-08-14T03:43:40.059Z,1007.96
2022-08-14T03:45:18.685Z,1007.93
2022-08-14T03:45:47.906Z,1007.95
2022-08-14T03:46:52.381Z,1007.91
2022-08-14T03:47:46.446Z,1007.94
2022-08-14T03:48:40.514Z,1007.94
2022-08-14T03:49:42.268Z,1007.99
2022-08-14T03:50:38.099Z,1007.95
2022-08-14T03:51:38.112Z,1007.95
2022-08-14T03:52:55.805Z,1007.97
2022-08-14T03:53:41.001Z,1007.95
2022-08-14T03:54:38.723Z,1007.97
2022-08-14T03:55:38.067Z,1007.92
2022-08-14T03:56:38.040Z,1007.97
2022-08-14T03:57:38.055Z,1007.95
2022-08-14T03:58:38.071Z,1007.93
2022-08-14T03:59:38.002Z,1007.93
2022-08-14T04:00:43.597Z,1007.96
2022-08-14T04:01:45.619Z,1007.92
2022-08-14T04:02:47.299Z,1007.90
2022-08-14T04:03:40.976Z,1007.88
2022-08-14T04:04:37.976Z,1007.88
2022-08-14T04:05:43.506Z,1007.87
2022-08-14T04:06:44.555Z,1007.93
2022-08-14T04:07:49.902Z,1007.88
2022-08-14T04:08:38.895Z,1007.88
2022-08-14T04:09:39.891Z,1007.86
2022-08-14T04:10:38.568Z,1007.88
2022-08-14T04:11:37.945Z,1007.86
2022-08-14T04:12:37.879Z,1007.84
2022-08-14T04:13:37.866Z,1007.82
2022-08-14T04:14:37.860Z,1007.81
2022-08-14T04:15:56.263Z,1007.86
2022-08-14T04:16:38.859Z,1007.84
2022-08-14T04:17:38.488Z,1007.86
2022-08-14T04:18:38.462Z,1007.89
2022-08-14T04:19:39.746Z,1007.87
2022-08-14T04:20:51.714Z,1007.91
2022-08-14T04:22:03.917Z,1007.89
2022-08-14T04:22:38.751Z,1007.91
2022-08-14T04:23:37.800Z,1007.85
2022-08-14T04:24:39.331Z,1007.90
2022-08-14T04:25:37.737Z,1007.90
2022-08-14T04:26:42.484Z,1007.87
2022-08-14T04:28:01.901Z,1007.93
2022-08-14T04:29:07.189Z,1007.89
2022-08-14T04:29:39.367Z,1007.91
2022-08-14T04:30:38.533Z,1007.93
2022-08-14T04:33:00.980Z,1007.93
2022-08-14T04:33:01.417Z,1007.94
2022-08-14T04:33:38.761Z,1007.95
2022-08-14T04:34:37.653Z,1008.01
2022-08-14T04:35:55.430Z,1008.01
2022-08-14T04:36:39.505Z,1008.05
2022-08-14T04:37:38.276Z,1007.99
2022-08-14T04:38:39.784Z,1007.98
2022-08-14T04:39:37.657Z,1007.98
2022-08-14T04:40:40.481Z,1008.00
2022-08-14T04:41:39.975Z,1007.98
2022-08-14T04:42:38.273Z,1007.96
2022-08-14T04:43:39.598Z,1007.98
2022-08-14T04:44:37.516Z,1007.97
2022-08-14T04:45:38.490Z,1007.99
2022-08-14T04:46:55.335Z,1007.98
2022-08-14T04:47:39.176Z,1007.99
2022-08-14T04:48:43.825Z,1007.96
2022-08-14T04:49:46.694Z,1007.97
2022-08-14T04:50:44.370Z,1007.97
2022-08-14T04:51:46.684Z,1007.95
2022-08-14T04:52:39.111Z,1007.97
2022-08-14T04:53:42.920Z,1007.99
2022-08-14T04:54:38.390Z,1007.95
2022-08-14T04:55:38.228Z,1007.95
2022-08-14T04:56:38.062Z,1007.92
2022-08-14T04:57:37.400Z,1007.96
2022-08-14T04:58:38.053Z,1007.94
2022-08-14T04:59:37.346Z,1007.91
2022-08-14T05:00:38.355Z,1007.92
2022-08-14T05:01:39.788Z,1007.93
2022-08-14T05:02:38.088Z,1007.92
2022-08-14T05:03:39.218Z,1007.95
2022-08-14T05:04:39.739Z,1007.96
2022-08-14T05:05:38.273Z,1007.95
2022-08-14T05:06:39.858Z,1007.96
2022-08-14T05:07:54.654Z,1007.99
2022-08-14T05:08:57.491Z,1007.98
2022-08-14T05:09:43.862Z,1007.99
2022-08-14T05:10:42.192Z,1007.96
2022-08-14T05:11:40.136Z,1008.02
2022-08-14T05:13:12.757Z,1008.00
2022-08-14T05:13:53.203Z,1008.03
2022-08-14T05:14:46.953Z,1008.02
2022-08-14T05:15:39.652Z,1008.04
2022-08-14T05:16:37.841Z,1008.01
2022-08-14T05:17:53.828Z,1008.03
2022-08-14T05:19:18.849Z,1008.03
2022-08-14T05:19:45.031Z,1008.04
2022-08-14T05:21:56.099Z,1008.05
2022-08-14T05:22:00.286Z,1008.08
2022-08-14T05:22:40.078Z,1008.06
2022-08-14T05:23:37.785Z,1008.06
2022-08-14T05:24:37.766Z,1008.04
2022-08-14T05:25:37.073Z,1008.07
2022-08-14T05:26:38.050Z,1008.08
2022-08-14T05:27:37.733Z,1008.09
2022-08-14T05:28:37.042Z,1008.08
2022-08-14T05:29:37.717Z,1008.02
2022-08-14T05:30:37.014Z,1008.02
2022-08-14T05:31:40.152Z,1007.98
2022-08-14T05:32:37.205Z,1008.00
2022-08-14T05:33:37.679Z,1007.99
2022-08-14T05:34:36.987Z,1007.94
2022-08-14T05:35:36.995Z,1007.93
2022-08-14T05:36:38.644Z,1007.91
2022-08-14T05:37:36.937Z,1007.95
2022-08-14T05:38:37.987Z,1007.93
2022-08-14T05:39:37.662Z,1007.96
2022-08-14T05:40:37.858Z,1007.96
2022-08-14T05:41:52.739Z,1007.98
2022-08-14T05:42:38.643Z,1007.96
2022-08-14T05:43:41.183Z,1007.93
2022-08-14T05:44:37.917Z,1007.94
2022-08-14T05:45:37.537Z,1007.95
2022-08-14T05:46:37.655Z,1007.96
2022-08-14T05:47:39.569Z,1007.96
2022-08-14T05:48:43.151Z,1007.98
2022-08-14T05:49:38.499Z,1007.98
2022-08-14T05:50:36.851Z,1008.02
2022-08-14T05:51:37.483Z,1008.00
2022-08-14T05:52:48.841Z,1007.99
2022-08-14T05:53:42.281Z,1007.98
2022-08-14T05:54:37.448Z,1007.93
2022-08-14T05:55:36.884Z,1007.98
2022-08-14T05:56:38.404Z,1007.95
2022-08-14T05:57:36.762Z,1007.94
2022-08-14T05:58:41.480Z,1007.88
2022-08-14T05:59:39.507Z,1007.91
2022-08-14T06:00:38.620Z,1007.92
2022-08-14T06:01:36.773Z,1007.88
2022-08-14T06:02:37.355Z,1007.88
2022-08-14T06:03:36.665Z,1007.89
2022-08-14T06:04:36.688Z,1007.90
2022-08-14T06:05:38.742Z,1007.92
2022-08-14T06:06:38.433Z,1007.98
2022-08-14T06:07:36.967Z,1007.99
2022-08-14T06:08:41.686Z,1007.95
2022-08-14T06:09:40.527Z,1007.99
2022-08-14T06:10:37.539Z,1007.99
2022-08-14T06:11:37.260Z,1007.96
2022-08-14T06:12:56.466Z,1007.88
2022-08-14T06:13:45.847Z,1007.92
2022-08-14T06:14:37.563Z,1007.91
2022-08-14T06:15:38.490Z,1007.90
2022-08-14T06:16:36.529Z,1007.91
2022-08-14T06:17:42.234Z,1007.91
2022-08-14T06:18:38.222Z,1007.84
2022-08-14T06:19:37.201Z,1007.82
2022-08-14T06:20:37.169Z,1007.88
2022-08-14T06:21:36.509Z,1007.78
2022-08-14T06:22:36.524Z,1007.80
2022-08-14T06:23:37.132Z,1007.83
2022-08-14T06:24:36.484Z,1007.83
2022-08-14T06:25:38.408Z,1007.86
2022-08-14T06:26:37.104Z,1007.82
2022-08-14T06:27:36.415Z,1007.87
2022-08-14T06:28:37.076Z,1007.87
2022-08-14T06:29:37.071Z,1007.90
2022-08-14T06:30:45.953Z,1007.98
2022-08-14T06:31:38.320Z,1007.91
2022-08-14T06:32:39.031Z,1007.95
2022-08-14T06:35:02.762Z,1007.97
2022-08-14T06:35:02.914Z,1007.98
2022-08-14T06:35:38.249Z,1008.01
2022-08-14T06:36:36.988Z,1008.03
2022-08-14T06:37:36.975Z,1008.07
2022-08-14T06:38:36.316Z,1008.15
2022-08-14T06:39:38.782Z,1008.17
2022-08-14T06:40:36.334Z,1008.17
2022-08-14T06:41:58.042Z,1008.09
2022-08-14T06:42:38.310Z,1008.04
2022-08-14T06:43:36.932Z,1008.02
2022-08-14T06:44:36.910Z,1008.05
2022-08-14T06:45:36.910Z,1008.03
2022-08-14T06:46:37.254Z,1008.02
2022-08-14T06:47:38.124Z,1008.00
2022-08-14T06:48:37.313Z,1007.97
2022-08-14T06:49:43.302Z,1007.94
2022-08-14T06:50:37.165Z,1007.92
2022-08-14T06:51:44.912Z,1007.95
2022-08-14T06:52:39.104Z,1007.92
2022-08-14T06:53:39.068Z,1007.96
2022-08-14T06:54:36.262Z,1007.92
2022-08-14T06:55:37.098Z,1007.93
2022-08-14T06:56:36.125Z,1008.04
2022-08-14T06:57:37.076Z,1008.06
2022-08-14T06:58:36.765Z,1008.08
2022-08-14T06:59:36.357Z,1008.06
2022-08-14T07:00:36.117Z,1008.09
2022-08-14T07:01:36.780Z,1008.12
2022-08-14T07:02:36.769Z,1008.25
2022-08-14T07:03:37.718Z,1008.36
2022-08-14T07:04:36.800Z,1008.23
2022-08-14T07:05:36.711Z,1008.23
2022-08-14T07:06:46.395Z,1008.23
2022-08-14T07:07:37.671Z,1008.15
2022-08-14T07:08:35.998Z,1008.06
2022-08-14T07:09:43.521Z,1007.98
2022-08-14T07:10:37.011Z,1007.89
2022-08-14T07:11:36.634Z,1007.83
2022-08-14T07:12:56.677Z,1007.84
2022-08-14T07:13:36.973Z,1007.78
2022-08-14T07:14:35.914Z,1007.78
2022-08-14T07:15:39.944Z,1007.78
2022-08-14T07:16:37.576Z,1007.79
2022-08-14T07:17:36.873Z,1007.79
2022-08-14T07:18:36.783Z,1007.80
2022-08-14T07:19:36.074Z,1007.75
2022-08-14T07:20:36.545Z,1007.75
2022-08-14T07:21:36.805Z,1007.74
2022-08-14T07:22:56.069Z,1007.74
2022-08-14T07:23:40.190Z,1007.69
2022-08-14T07:24:36.813Z,1007.74
2022-08-14T07:25:37.656Z,1007.79
2022-08-14T07:26:36.537Z,1007.74
2022-08-14T07:27:35.958Z,1007.76
2022-08-14T07:28:43.603Z,1007.75
2022-08-14T07:29:38.722Z,1007.79
2022-08-14T07:30:35.759Z,1007.73
2022-08-14T07:31:36.760Z,1007.83
2022-08-14T07:32:36.579Z,1007.68
2022-08-14T07:33:35.737Z,1007.68
2022-08-14T07:34:41.307Z,1007.66
2022-08-14T07:35:57.988Z,1007.64
2022-08-14T07:36:37.374Z,1007.61
2022-08-14T07:37:37.634Z,1007.60
2022-08-14T07:38:37.864Z,1007.57
2022-08-14T07:39:35.680Z,1007.60
2022-08-14T07:40:37.583Z,1007.57
2022-08-14T07:41:36.323Z,1007.60
2022-08-14T07:42:36.310Z,1007.57
2022-08-14T07:43:36.506Z,1007.62
2022-08-14T07:44:45.787Z,1007.59
2022-08-14T07:45:36.613Z,1007.63
2022-08-14T07:46:35.615Z,1007.60
2022-08-14T07:47:35.640Z,1007.58
2022-08-14T07:48:36.246Z,1007.60
2022-08-14T07:49:36.291Z,1007.60
2022-08-14T07:50:37.374Z,1007.62
2022-08-14T07:51:37.155Z,1007.63
2022-08-14T07:52:35.531Z,1007.62
2022-08-14T07:53:39.180Z,1007.65
2022-08-14T07:54:37.200Z,1007.75
2022-08-14T07:55:35.582Z,1007.65
2022-08-14T07:56:48.137Z,1007.67
2022-08-14T07:57:36.470Z,1007.71
2022-08-14T07:58:38.869Z,1007.64
2022-08-14T07:59:40.845Z,1007.64
2022-08-14T08:00:37.354Z,1007.72
2022-08-14T08:01:35.692Z,1007.74
2022-08-14T08:02:36.409Z,1007.66
2022-08-14T08:03:36.554Z,1007.65
2022-08-14T08:04:38.743Z,1007.65
2022-08-14T08:05:35.610Z,1007.61
2022-08-14T08:06:36.064Z,1007.65
2022-08-14T08:07:39.191Z,1007.58
2022-08-14T08:08:35.761Z,1007.59
2022-08-14T08:09:36.678Z,1007.51
2022-08-14T08:11:01.255Z,1007.53
2022-08-14T08:11:37.122Z,1007.55
2022-08-14T08:12:36.015Z,1007.51
2022-08-14T08:13:35.334Z,1007.52
2022-08-14T08:14:55.642Z,1007.49
2022-08-14T08:15:38.924Z,1007.55
2022-08-14T08:16:35.969Z,1007.46
2022-08-14T08:17:42.326Z,1007.47
2022-08-14T08:18:37.905Z,1007.38
2022-08-14T08:19:36.871Z,1007.51
2022-08-14T08:20:38.353Z,1007.41
2022-08-14T08:21:35.761Z,1007.39
2022-08-14T08:22:37.346Z,1007.35
2022-08-14T08:23:40.774Z,1007.39
2022-08-14T08:24:36.451Z,1007.29
2022-08-14T08:25:40.059Z,1007.34
2022-08-14T08:26:39.715Z,1007.35
2022-08-14T08:27:35.219Z,1007.32
2022-08-14T08:28:35.163Z,1007.34
2022-08-14T08:29:37.634Z,1007.30
2022-08-14T08:30:36.135Z,1007.30
2022-08-14T08:31:35.492Z,1007.30
2022-08-14T08:32:35.295Z,1007.31
2022-08-14T08:33:37.308Z,1007.26
2022-08-14T08:34:35.916Z,1007.27
2022-08-14T08:35:47.063Z,1007.34
2022-08-14T08:36:36.801Z,1007.33
2022-08-14T08:37:40.209Z,1007.23
2022-08-14T08:39:18.539Z,1007.23
2022-08-14T08:40:01.626Z,1007.22
2022-08-14T08:40:42.278Z,1007.20
2022-08-14T08:41:35.371Z,1007.11
2022-08-14T08:42:51.982Z,1007.13
2022-08-14T08:43:36.100Z,1007.09
2022-08-14T08:44:35.683Z,1007.07
2022-08-14T08:45:35.010Z,1007.07
2022-08-14T08:46:35.940Z,1007.05
2022-08-14T08:47:35.183Z,1006.99
2022-08-14T08:48:46.721Z,1006.91
2022-08-14T08:49:42.926Z,1006.92
2022-08-14T08:51:08.437Z,1007.00
2022-08-14T08:52:24.548Z,1006.91
2022-08-14T08:53:10.258Z,1006.88
2022-08-14T08:54:19.970Z,1006.86
2022-08-14T08:55:10.805Z,1006.88
2022-08-14T08:56:08.419Z,1006.83
2022-08-14T08:57:08.079Z,1006.83
2022-08-14T08:58:12.762Z,1006.84
2022-08-14T08:59:08.753Z,1006.85
2022-08-14T09:00:30.454Z,1006.88
2022-08-14T09:01:08.466Z,1006.89
2022-08-14T09:02:10.744Z,1006.88
2022-08-14T09:03:10.215Z,1006.85
2022-08-14T09:04:17.317Z,1006.89
2022-08-14T09:05:09.367Z,1006.84
2022-08-14T09:06:53.669Z,1006.86
2022-08-14T09:07:11.149Z,1006.88
2022-08-14T09:08:08.711Z,1006.85
2022-08-14T09:09:10.046Z,1006.78
2022-08-14T09:10:07.637Z,1006.83
2022-08-14T09:11:19.174Z,1006.78
2022-08-14T09:12:09.498Z,1006.79
2022-08-14T09:13:08.583Z,1006.84
2022-08-14T09:14:08.246Z,1006.81
2022-08-14T09:15:11.527Z,1006.74
2022-08-14T09:16:19.164Z,1006.76
2022-08-14T09:17:08.550Z,1006.72
2022-08-14T09:18:08.479Z,1006.72
2022-08-14T09:19:08.198Z,1006.74
2022-08-14T09:20:07.509Z,1006.72
2022-08-14T09:21:07.512Z,1006.72
2022-08-14T09:22:34.844Z,1006.61
2022-08-14T09:23:09.148Z,1006.62
2022-08-14T09:24:29.009Z,1006.67
2022-08-14T09:25:09.132Z,1006.63
2022-08-14T09:26:21.244Z,1006.65
2022-08-14T09:27:09.460Z,1006.63
2022-08-14T09:28:09.770Z,1006.70
2022-08-14T09:29:07.402Z,1006.64
2022-08-14T09:30:31.161Z,1006.66
2022-08-14T09:31:17.930Z,1006.69
2022-08-14T09:32:57.991Z,1006.73
2022-08-14T09:33:11.049Z,1006.68
2022-08-14T09:34:09.412Z,1006.64
2022-08-14T09:35:09.806Z,1006.66
2022-08-14T09:36:09.132Z,1006.69
2022-08-14T09:37:07.339Z,1006.73
2022-08-14T09:38:17.656Z,1006.70
2022-08-14T09:39:13.003Z,1006.72
2022-08-14T09:40:10.489Z,1006.68
2022-08-14T09:41:08.318Z,1006.66
2022-08-14T09:42:20.473Z,1006.61
2022-08-14T09:43:08.333Z,1006.56
2022-08-14T09:44:07.308Z,1006.64
2022-08-14T09:45:08.915Z,1006.59
2022-08-14T09:46:07.900Z,1006.61
2022-08-14T09:47:07.679Z,1006.60
2022-08-14T09:48:08.013Z,1006.63
2022-08-14T09:49:12.029Z,1006.58
2022-08-14T09:50:08.221Z,1006.60
2022-08-14T09:51:44.874Z,1006.54
2022-08-14T09:52:44.009Z,1006.52
2022-08-14T09:54:17.725Z,1006.44
2022-08-14T09:54:41.396Z,1006.46
2022-08-14T09:55:42.447Z,1006.44
2022-08-14T09:56:38.878Z,1006.47
2022-08-14T09:57:39.849Z,1006.44
2022-08-14T09:58:40.883Z,1006.42
2022-08-14T09:59:38.898Z,1006.42
2022-08-14T10:00:39.539Z,1006.43
2022-08-14T10:01:38.889Z,1006.49
2022-08-14T10:02:45.684Z,1006.43
2022-08-14T10:03:40.520Z,1006.41
2022-08-14T10:04:42.270Z,1006.44
2022-08-14T10:05:41.750Z,1006.52
2022-08-14T10:06:38.794Z,1006.48
2022-08-14T10:07:41.224Z,1006.48
2022-08-14T10:08:39.792Z,1006.48
2022-08-14T10:09:39.452Z,1006.47
2022-08-14T10:10:38.781Z,1006.57
2022-08-14T10:11:41.063Z,1006.48
2022-08-14T10:12:39.480Z,1006.54
2022-08-14T10:13:52.737Z,1006.44
2022-08-14T10:14:42.146Z,1006.48
2022-08-14T10:15:38.805Z,1006.50
2022-08-14T10:16:38.706Z,1006.42
2022-08-14T10:17:38.926Z,1006.43
2022-08-14T10:18:38.736Z,1006.40
2022-08-14T10:19:39.376Z,1006.40
2022-08-14T10:20:40.281Z,1006.42
2022-08-14T10:23:10.829Z,1006.38
2022-08-14T10:23:13.646Z,1006.29
2022-08-14T10:23:39.665Z,1006.30
2022-08-14T10:24:38.639Z,1006.26
2022-08-14T10:25:39.570Z,1006.23
2022-08-14T10:26:38.649Z,1006.18
2022-08-14T10:27:38.574Z,1006.22
2022-08-14T10:28:39.484Z,1006.10
2022-08-14T10:29:39.623Z,1006.13
2022-08-14T10:30:39.245Z,1006.16
2022-08-14T10:31:44.934Z,1006.13
2022-08-14T10:32:42.099Z,1006.02
2022-08-14T10:33:41.954Z,1006.09
2022-08-14T10:34:38.690Z,1006.05
2022-08-14T10:35:39.485Z,1006.00
2022-08-14T10:36:40.959Z,1005.96
2022-08-14T10:37:40.047Z,1005.93
2022-08-14T10:38:38.905Z,1005.95
2022-08-14T10:39:38.522Z,1006.01
2022-08-14T10:40:43.908Z,1005.87
2022-08-14T10:41:46.577Z,1005.98
2022-08-14T10:42:41.457Z,1005.92
2022-08-14T10:43:39.914Z,1005.88
2022-08-14T10:44:38.421Z,1005.96
2022-08-14T10:45:42.017Z,1005.85
2022-08-14T10:47:41.602Z,1005.86
2022-08-14T10:48:07.526Z,1005.74
2022-08-14T10:48:44.964Z,1005.79
2022-08-14T10:49:40.432Z,1005.75
2022-08-14T10:50:38.368Z,1005.76
2022-08-14T10:51:41.688Z,1005.68
2022-08-14T10:52:38.377Z,1005.68
2022-08-14T10:53:39.823Z,1005.69
2022-08-14T10:54:40.318Z,1005.67
2022-08-14T10:55:38.548Z,1005.65
2022-08-14T10:56:38.971Z,1005.67
2022-08-14T10:57:38.461Z,1005.61
2022-08-14T10:58:38.393Z,1005.56
2022-08-14T10:59:43.157Z,1005.61
2022-08-14T11:00:38.294Z,1005.65
2022-08-14T11:01:41.281Z,1005.70
2022-08-14T11:02:54.285Z,1005.68
2022-08-14T11:03:56.608Z,1005.63
2022-08-14T11:04:39.971Z,1005.64
2022-08-14T11:05:38.200Z,1005.53
2022-08-14T11:06:38.877Z,1005.50
2022-08-14T11:07:38.295Z,1005.50
2022-08-14T11:08:39.157Z,1005.44
2022-08-14T11:09:41.835Z,1005.39
2022-08-14T11:10:38.838Z,1005.36
2022-08-14T11:11:38.243Z,1005.35
2022-08-14T11:12:40.560Z,1005.37
2022-08-14T11:13:38.812Z,1005.34
2022-08-14T11:14:38.793Z,1005.31
2022-08-14T11:15:38.230Z,1005.28
2022-08-14T11:16:40.699Z,1005.30
2022-08-14T11:17:38.131Z,1005.33
2022-08-14T11:18:40.335Z,1005.37
2022-08-14T11:19:38.113Z,1005.36
2022-08-14T11:20:38.975Z,1005.35
2022-08-14T11:21:38.923Z,1005.39
2022-08-14T11:23:02.888Z,1005.37
2022-08-14T11:23:40.856Z,1005.43
2022-08-14T11:24:50.479Z,1005.37
2022-08-14T11:25:44.441Z,1005.34
2022-08-14T11:26:40.943Z,1005.40
2022-08-14T11:27:38.902Z,1005.36
2022-08-14T11:28:46.183Z,1005.26
2022-08-14T11:29:38.946Z,1005.27
2022-08-14T11:30:50.980Z,1005.22
2022-08-14T11:31:39.346Z,1005.18
2022-08-14T11:32:39.896Z,1005.29
2022-08-14T11:33:38.626Z,1005.23
2022-08-14T11:34:37.907Z,1005.17
2022-08-14T11:35:47.559Z,1005.15
2022-08-14T11:37:09.826Z,1005.09
2022-08-14T11:37:40.807Z,1005.17
2022-08-14T11:38:38.540Z,1005.19
2022-08-14T11:39:37.985Z,1005.31
2022-08-14T11:40:37.860Z,1005.21
2022-08-14T11:41:41.422Z,1005.27
2022-08-14T11:42:57.775Z,1005.24
2022-08-14T11:43:40.357Z,1005.26
2022-08-14T11:44:46.619Z,1005.12
2022-08-14T11:45:39.462Z,1005.13
2022-08-14T11:46:38.453Z,1005.07
2022-08-14T11:48:11.194Z,1005.02
2022-08-14T11:49:02.688Z,1005.09
2022-08-14T11:49:38.780Z,1005.00
2022-08-14T11:50:38.429Z,1005.00
2022-08-14T11:51:54.041Z,1005.05
2022-08-14T11:52:40.747Z,1005.06
2022-08-14T11:53:37.745Z,1005.02
2022-08-14T11:54:37.696Z,1005.02
2022-08-14T11:55:38.343Z,1004.97
2022-08-14T11:56:38.356Z,1005.09
2022-08-14T11:57:38.337Z,1005.01
2022-08-14T11:58:37.657Z,1004.98
2022-08-14T11:59:44.238Z,1004.97
2022-08-14T12:00:40.214Z,1004.94
2022-08-14T12:01:41.187Z,1004.92
2022-08-14T12:03:03.429Z,1004.99
2022-08-14T12:03:46.710Z,1004.95
2022-08-14T12:04:38.622Z,1004.94
2022-08-14T12:05:38.260Z,1004.90
2022-08-14T12:06:39.661Z,1004.93